sensor_id;sensor_type;location;lat;lon;timestamp;P1;durP1;ratioP1;P2;durP2;ratioP2
21729;SDS011;11027;51.030;13.812;2023-12-07T00:01:17;14.27;;;10.63;;
21729;SDS011;11027;51.030;13.812;2023-12-07T00:03:43;17.88;;;10.93;;
21729;SDS011;11027;51.030;13.812;2023-12-07T00:06:08;15.70;;;11.88;;
21729;SDS011;11027;51.030;13.812;2023-12-07T00:08:33;15.20;;;10.80;;
21729;SDS011;11027;51.030;13.812;2023-12-07T00:10:58;14.52;;;11.05;;
21729;SDS011;11027;51.030;13.812;2023-12-07T00:13:24;15.23;;;11.35;;
21729;SDS011;11027;51.030;13.812;2023-12-07T00:15:49;15.75;;;11.55;;
21729;SDS011;11027;51.030;13.812;2023-12-07T00:18:14;15.60;;;11.38;;
21729;SDS011;11027;51.030;13.812;2023-12-07T00:20:39;18.08;;;12.35;;
21729;SDS011;11027;51.030;13.812;2023-12-07T00:23:05;15.95;;;11.57;;
21729;SDS011;11027;51.030;13.812;2023-12-07T00:25:30;17.08;;;12.10;;
21729;SDS011;11027;51.030;13.812;2023-12-07T00:27:56;13.13;;;10.85;;
21729;SDS011;11027;51.030;13.812;2023-12-07T00:30:21;15.93;;;11.98;;
21729;SDS011;11027;51.030;13.812;2023-12-07T00:32:46;16.90;;;11.60;;
21729;SDS011;11027;51.030;13.812;2023-12-07T00:35:12;16.65;;;12.45;;
21729;SDS011;11027;51.030;13.812;2023-12-07T00:37:37;22.15;;;12.85;;
21729;SDS011;11027;51.030;13.812;2023-12-07T00:40:03;19.08;;;13.00;;
21729;SDS011;11027;51.030;13.812;2023-12-07T00:42:29;21.33;;;13.68;;
21729;SDS011;11027;51.030;13.812;2023-12-07T00:44:54;19.85;;;13.45;;
21729;SDS011;11027;51.030;13.812;2023-12-07T00:47:20;20.25;;;12.80;;
21729;SDS011;11027;51.030;13.812;2023-12-07T00:49:45;20.92;;;14.30;;
21729;SDS011;11027;51.030;13.812;2023-12-07T00:52:11;20.02;;;14.13;;
21729;SDS011;11027;51.030;13.812;2023-12-07T00:54:36;17.10;;;12.38;;
21729;SDS011;11027;51.030;13.812;2023-12-07T00:57:01;17.92;;;12.88;;
21729;SDS011;11027;51.030;13.812;2023-12-07T00:59:26;18.42;;;12.32;;
21729;SDS011;11027;51.030;13.812;2023-12-07T01:01:52;18.02;;;13.23;;
21729;SDS011;11027;51.030;13.812;2023-12-07T01:04:17;18.63;;;12.80;;
21729;SDS011;11027;51.030;13.812;2023-12-07T01:06:43;17.52;;;12.55;;
21729;SDS011;11027;51.030;13.812;2023-12-07T01:09:08;18.88;;;13.23;;
21729;SDS011;11027;51.030;13.812;2023-12-07T01:11:38;19.42;;;13.15;;
21729;SDS011;11027;51.030;13.812;2023-12-07T01:14:04;18.15;;;12.63;;
21729;SDS011;11027;51.030;13.812;2023-12-07T01:16:29;17.83;;;12.88;;
21729;SDS011;11027;51.030;13.812;2023-12-07T01:18:55;18.33;;;12.57;;
21729;SDS011;11027;51.030;13.812;2023-12-07T01:21:20;19.75;;;13.10;;
21729;SDS011;11027;51.030;13.812;2023-12-07T01:23:45;18.20;;;12.73;;
21729;SDS011;11027;51.030;13.812;2023-12-07T01:26:10;20.13;;;12.88;;
21729;SDS011;11027;51.030;13.812;2023-12-07T01:28:36;18.08;;;12.50;;
21729;SDS011;11027;51.030;13.812;2023-12-07T01:31:01;22.08;;;12.73;;
21729;SDS011;11027;51.030;13.812;2023-12-07T01:33:26;19.48;;;13.02;;
21729;SDS011;11027;51.030;13.812;2023-12-07T01:35:51;18.70;;;13.15;;
21729;SDS011;11027;51.030;13.812;2023-12-07T01:38:17;20.65;;;13.90;;
21729;SDS011;11027;51.030;13.812;2023-12-07T01:40:42;20.38;;;13.10;;
21729;SDS011;11027;51.030;13.812;2023-12-07T01:43:07;18.77;;;12.50;;
21729;SDS011;11027;51.030;13.812;2023-12-07T01:45:33;18.70;;;12.65;;
21729;SDS011;11027;51.030;13.812;2023-12-07T01:47:58;18.63;;;12.85;;
21729;SDS011;11027;51.030;13.812;2023-12-07T01:50:24;21.08;;;13.18;;
21729;SDS011;11027;51.030;13.812;2023-12-07T01:52:52;20.45;;;13.40;;
21729;SDS011;11027;51.030;13.812;2023-12-07T01:55:21;17.65;;;12.63;;
21729;SDS011;11027;51.030;13.812;2023-12-07T01:57:47;20.58;;;12.90;;
21729;SDS011;11027;51.030;13.812;2023-12-07T02:00:14;18.40;;;12.73;;
21729;SDS011;11027;51.030;13.812;2023-12-07T02:02:40;19.52;;;13.07;;
21729;SDS011;11027;51.030;13.812;2023-12-07T02:05:05;17.95;;;12.70;;
21729;SDS011;11027;51.030;13.812;2023-12-07T02:07:31;19.10;;;12.75;;
21729;SDS011;11027;51.030;13.812;2023-12-07T02:09:59;18.30;;;12.38;;
21729;SDS011;11027;51.030;13.812;2023-12-07T02:12:24;19.70;;;12.50;;
21729;SDS011;11027;51.030;13.812;2023-12-07T02:14:50;18.00;;;12.48;;
21729;SDS011;11027;51.030;13.812;2023-12-07T02:17:24;17.90;;;12.68;;
21729;SDS011;11027;51.030;13.812;2023-12-07T02:20:00;18.13;;;11.95;;
21729;SDS011;11027;51.030;13.812;2023-12-07T02:22:32;15.05;;;11.93;;
21729;SDS011;11027;51.030;13.812;2023-12-07T02:25:05;18.13;;;12.35;;
21729;SDS011;11027;51.030;13.812;2023-12-07T02:27:34;16.05;;;11.95;;
21729;SDS011;11027;51.030;13.812;2023-12-07T02:29:59;18.05;;;12.00;;
21729;SDS011;11027;51.030;13.812;2023-12-07T02:32:25;18.27;;;11.98;;
21729;SDS011;11027;51.030;13.812;2023-12-07T02:34:50;15.52;;;11.52;;
21729;SDS011;11027;51.030;13.812;2023-12-07T02:37:15;20.40;;;12.98;;
21729;SDS011;11027;51.030;13.812;2023-12-07T02:39:42;15.82;;;11.55;;
21729;SDS011;11027;51.030;13.812;2023-12-07T02:42:07;17.27;;;12.27;;
21729;SDS011;11027;51.030;13.812;2023-12-07T02:44:34;16.67;;;12.10;;
21729;SDS011;11027;51.030;13.812;2023-12-07T02:47:00;16.20;;;11.95;;
21729;SDS011;11027;51.030;13.812;2023-12-07T02:49:25;16.50;;;11.88;;
21729;SDS011;11027;51.030;13.812;2023-12-07T02:51:50;15.45;;;11.80;;
21729;SDS011;11027;51.030;13.812;2023-12-07T02:54:15;15.23;;;11.95;;
21729;SDS011;11027;51.030;13.812;2023-12-07T02:56:41;14.82;;;11.45;;
21729;SDS011;11027;51.030;13.812;2023-12-07T02:59:06;15.75;;;12.20;;
21729;SDS011;11027;51.030;13.812;2023-12-07T03:01:31;15.68;;;11.95;;
21729;SDS011;11027;51.030;13.812;2023-12-07T03:03:56;17.27;;;12.13;;
21729;SDS011;11027;51.030;13.812;2023-12-07T03:06:22;16.23;;;11.45;;
21729;SDS011;11027;51.030;13.812;2023-12-07T03:08:47;17.45;;;12.10;;
21729;SDS011;11027;51.030;13.812;2023-12-07T03:11:12;18.38;;;12.60;;
21729;SDS011;11027;51.030;13.812;2023-12-07T03:13:37;19.67;;;12.57;;
21729;SDS011;11027;51.030;13.812;2023-12-07T03:16:06;16.48;;;11.98;;
21729;SDS011;11027;51.030;13.812;2023-12-07T03:18:32;17.20;;;11.30;;
21729;SDS011;11027;51.030;13.812;2023-12-07T03:20:57;15.70;;;12.20;;
21729;SDS011;11027;51.030;13.812;2023-12-07T03:23:22;16.23;;;11.40;;
21729;SDS011;11027;51.030;13.812;2023-12-07T03:25:48;16.13;;;12.10;;
21729;SDS011;11027;51.030;13.812;2023-12-07T03:28:13;17.13;;;12.15;;
21729;SDS011;11027;51.030;13.812;2023-12-07T03:30:38;16.77;;;12.00;;
21729;SDS011;11027;51.030;13.812;2023-12-07T03:33:03;15.27;;;11.93;;
21729;SDS011;11027;51.030;13.812;2023-12-07T03:35:29;18.75;;;12.50;;
21729;SDS011;11027;51.030;13.812;2023-12-07T03:37:54;18.00;;;11.98;;
21729;SDS011;11027;51.030;13.812;2023-12-07T03:40:19;17.77;;;12.32;;
21729;SDS011;11027;51.030;13.812;2023-12-07T03:42:44;19.60;;;13.30;;
21729;SDS011;11027;51.030;13.812;2023-12-07T03:45:10;16.98;;;12.57;;
21729;SDS011;11027;51.030;13.812;2023-12-07T03:47:35;18.77;;;12.73;;
21729;SDS011;11027;51.030;13.812;2023-12-07T03:50:00;18.25;;;12.48;;
21729;SDS011;11027;51.030;13.812;2023-12-07T03:52:25;19.15;;;12.35;;
21729;SDS011;11027;51.030;13.812;2023-12-07T03:54:51;16.55;;;12.35;;
21729;SDS011;11027;51.030;13.812;2023-12-07T03:57:16;16.35;;;12.48;;
21729;SDS011;11027;51.030;13.812;2023-12-07T03:59:41;17.60;;;12.38;;
21729;SDS011;11027;51.030;13.812;2023-12-07T04:02:06;15.02;;;11.73;;
21729;SDS011;11027;51.030;13.812;2023-12-07T04:04:32;19.42;;;13.15;;
21729;SDS011;11027;51.030;13.812;2023-12-07T04:06:57;17.58;;;12.50;;
21729;SDS011;11027;51.030;13.812;2023-12-07T04:09:22;20.67;;;12.68;;
21729;SDS011;11027;51.030;13.812;2023-12-07T04:11:47;18.65;;;13.00;;
21729;SDS011;11027;51.030;13.812;2023-12-07T04:14:13;17.65;;;12.98;;
21729;SDS011;11027;51.030;13.812;2023-12-07T04:16:38;17.55;;;12.75;;
21729;SDS011;11027;51.030;13.812;2023-12-07T04:19:03;17.23;;;12.32;;
21729;SDS011;11027;51.030;13.812;2023-12-07T04:21:28;16.83;;;12.98;;
21729;SDS011;11027;51.030;13.812;2023-12-07T04:23:54;18.05;;;13.30;;
21729;SDS011;11027;51.030;13.812;2023-12-07T04:26:19;15.70;;;12.48;;
21729;SDS011;11027;51.030;13.812;2023-12-07T04:28:44;17.50;;;12.77;;
21729;SDS011;11027;51.030;13.812;2023-12-07T04:31:09;15.95;;;12.77;;
21729;SDS011;11027;51.030;13.812;2023-12-07T04:33:35;15.30;;;11.95;;
21729;SDS011;11027;51.030;13.812;2023-12-07T04:36:00;16.90;;;13.15;;
21729;SDS011;11027;51.030;13.812;2023-12-07T04:38:25;16.05;;;13.10;;
21729;SDS011;11027;51.030;13.812;2023-12-07T04:40:51;16.92;;;12.45;;
21729;SDS011;11027;51.030;13.812;2023-12-07T04:43:16;18.08;;;12.88;;
21729;SDS011;11027;51.030;13.812;2023-12-07T04:45:41;17.85;;;12.77;;
21729;SDS011;11027;51.030;13.812;2023-12-07T04:48:06;18.70;;;13.25;;
21729;SDS011;11027;51.030;13.812;2023-12-07T04:50:32;17.75;;;13.32;;
21729;SDS011;11027;51.030;13.812;2023-12-07T04:52:57;17.90;;;13.15;;
21729;SDS011;11027;51.030;13.812;2023-12-07T04:55:23;17.33;;;13.05;;
21729;SDS011;11027;51.030;13.812;2023-12-07T04:57:48;18.65;;;13.43;;
21729;SDS011;11027;51.030;13.812;2023-12-07T05:00:13;16.33;;;12.40;;
21729;SDS011;11027;51.030;13.812;2023-12-07T05:02:39;18.70;;;13.82;;
21729;SDS011;11027;51.030;13.812;2023-12-07T05:05:04;18.02;;;13.55;;
21729;SDS011;11027;51.030;13.812;2023-12-07T05:07:30;19.15;;;13.18;;
21729;SDS011;11027;51.030;13.812;2023-12-07T05:09:55;19.15;;;13.95;;
21729;SDS011;11027;51.030;13.812;2023-12-07T05:12:20;18.20;;;14.00;;
21729;SDS011;11027;51.030;13.812;2023-12-07T05:14:46;20.58;;;14.23;;
21729;SDS011;11027;51.030;13.812;2023-12-07T05:17:12;19.27;;;14.27;;
21729;SDS011;11027;51.030;13.812;2023-12-07T05:19:37;18.52;;;13.52;;
21729;SDS011;11027;51.030;13.812;2023-12-07T05:22:02;18.92;;;14.65;;
21729;SDS011;11027;51.030;13.812;2023-12-07T05:24:28;21.42;;;15.77;;
21729;SDS011;11027;51.030;13.812;2023-12-07T05:26:53;19.50;;;15.00;;
21729;SDS011;11027;51.030;13.812;2023-12-07T05:29:18;21.20;;;15.60;;
21729;SDS011;11027;51.030;13.812;2023-12-07T05:31:44;20.13;;;14.75;;
21729;SDS011;11027;51.030;13.812;2023-12-07T05:34:09;19.70;;;14.95;;
21729;SDS011;11027;51.030;13.812;2023-12-07T05:36:34;20.33;;;14.52;;
21729;SDS011;11027;51.030;13.812;2023-12-07T05:39:00;19.92;;;14.27;;
21729;SDS011;11027;51.030;13.812;2023-12-07T05:41:25;20.42;;;15.05;;
21729;SDS011;11027;51.030;13.812;2023-12-07T05:43:50;22.25;;;15.55;;
21729;SDS011;11027;51.030;13.812;2023-12-07T05:46:16;22.35;;;15.82;;
21729;SDS011;11027;51.030;13.812;2023-12-07T05:48:41;21.50;;;15.38;;
21729;SDS011;11027;51.030;13.812;2023-12-07T05:51:13;20.42;;;15.32;;
21729;SDS011;11027;51.030;13.812;2023-12-07T05:53:39;21.38;;;16.02;;
21729;SDS011;11027;51.030;13.812;2023-12-07T05:56:05;21.23;;;16.08;;
21729;SDS011;11027;51.030;13.812;2023-12-07T05:58:30;22.25;;;16.13;;
21729;SDS011;11027;51.030;13.812;2023-12-07T06:00:55;19.90;;;15.30;;
21729;SDS011;11027;51.030;13.812;2023-12-07T06:03:20;21.70;;;16.23;;
21729;SDS011;11027;51.030;13.812;2023-12-07T06:05:46;23.38;;;16.75;;
21729;SDS011;11027;51.030;13.812;2023-12-07T06:08:11;25.98;;;17.83;;
21729;SDS011;11027;51.030;13.812;2023-12-07T06:10:37;24.10;;;16.70;;
21729;SDS011;11027;51.030;13.812;2023-12-07T06:13:03;23.50;;;15.82;;
21729;SDS011;11027;51.030;13.812;2023-12-07T06:15:29;21.48;;;16.30;;
21729;SDS011;11027;51.030;13.812;2023-12-07T06:17:55;22.00;;;16.50;;
21729;SDS011;11027;51.030;13.812;2023-12-07T06:20:20;22.67;;;16.80;;
21729;SDS011;11027;51.030;13.812;2023-12-07T06:22:45;22.80;;;16.70;;
21729;SDS011;11027;51.030;13.812;2023-12-07T06:25:11;25.25;;;17.98;;
21729;SDS011;11027;51.030;13.812;2023-12-07T06:27:36;23.35;;;16.70;;
21729;SDS011;11027;51.030;13.812;2023-12-07T06:30:02;22.33;;;17.20;;
21729;SDS011;11027;51.030;13.812;2023-12-07T06:32:30;22.77;;;16.92;;
21729;SDS011;11027;51.030;13.812;2023-12-07T06:34:56;23.77;;;17.67;;
21729;SDS011;11027;51.030;13.812;2023-12-07T06:37:21;23.20;;;16.77;;
21729;SDS011;11027;51.030;13.812;2023-12-07T06:39:46;24.20;;;17.05;;
21729;SDS011;11027;51.030;13.812;2023-12-07T06:42:13;22.98;;;17.13;;
21729;SDS011;11027;51.030;13.812;2023-12-07T06:44:38;22.58;;;17.00;;
21729;SDS011;11027;51.030;13.812;2023-12-07T06:47:04;20.92;;;16.88;;
21729;SDS011;11027;51.030;13.812;2023-12-07T06:49:29;24.27;;;17.33;;
21729;SDS011;11027;51.030;13.812;2023-12-07T06:51:55;23.33;;;17.23;;
21729;SDS011;11027;51.030;13.812;2023-12-07T06:54:21;24.35;;;17.63;;
21729;SDS011;11027;51.030;13.812;2023-12-07T06:56:46;24.23;;;18.05;;
21729;SDS011;11027;51.030;13.812;2023-12-07T06:59:12;25.27;;;18.60;;
21729;SDS011;11027;51.030;13.812;2023-12-07T07:01:37;23.75;;;17.95;;
21729;SDS011;11027;51.030;13.812;2023-12-07T07:04:03;26.38;;;18.65;;
21729;SDS011;11027;51.030;13.812;2023-12-07T07:06:29;25.10;;;18.02;;
21729;SDS011;11027;51.030;13.812;2023-12-07T07:08:54;22.05;;;17.40;;
21729;SDS011;11027;51.030;13.812;2023-12-07T07:11:19;24.75;;;18.58;;
21729;SDS011;11027;51.030;13.812;2023-12-07T07:13:44;24.33;;;18.95;;
21729;SDS011;11027;51.030;13.812;2023-12-07T07:16:10;25.67;;;18.35;;
21729;SDS011;11027;51.030;13.812;2023-12-07T07:18:37;25.83;;;18.65;;
21729;SDS011;11027;51.030;13.812;2023-12-07T07:21:03;22.23;;;17.45;;
21729;SDS011;11027;51.030;13.812;2023-12-07T07:23:29;23.77;;;17.88;;
21729;SDS011;11027;51.030;13.812;2023-12-07T07:25:54;22.35;;;17.15;;
21729;SDS011;11027;51.030;13.812;2023-12-07T07:28:19;26.02;;;18.95;;
21729;SDS011;11027;51.030;13.812;2023-12-07T07:30:45;28.95;;;18.50;;
21729;SDS011;11027;51.030;13.812;2023-12-07T07:33:10;25.15;;;19.10;;
21729;SDS011;11027;51.030;13.812;2023-12-07T07:35:35;26.45;;;18.35;;
21729;SDS011;11027;51.030;13.812;2023-12-07T07:38:01;23.23;;;17.63;;
21729;SDS011;11027;51.030;13.812;2023-12-07T07:40:26;23.65;;;18.10;;
21729;SDS011;11027;51.030;13.812;2023-12-07T07:42:52;28.08;;;19.23;;
21729;SDS011;11027;51.030;13.812;2023-12-07T07:45:17;25.27;;;18.38;;
21729;SDS011;11027;51.030;13.812;2023-12-07T07:47:42;25.88;;;19.10;;
21729;SDS011;11027;51.030;13.812;2023-12-07T07:50:08;23.23;;;17.88;;
21729;SDS011;11027;51.030;13.812;2023-12-07T07:52:35;25.05;;;17.60;;
21729;SDS011;11027;51.030;13.812;2023-12-07T07:55:01;23.52;;;17.83;;
21729;SDS011;11027;51.030;13.812;2023-12-07T07:57:28;24.48;;;17.27;;
21729;SDS011;11027;51.030;13.812;2023-12-07T07:59:54;25.90;;;18.35;;
21729;SDS011;11027;51.030;13.812;2023-12-07T08:02:20;26.20;;;17.88;;
21729;SDS011;11027;51.030;13.812;2023-12-07T08:04:46;25.40;;;18.77;;
21729;SDS011;11027;51.030;13.812;2023-12-07T08:07:12;25.55;;;17.98;;
21729;SDS011;11027;51.030;13.812;2023-12-07T08:09:37;27.02;;;19.63;;
21729;SDS011;11027;51.030;13.812;2023-12-07T08:12:03;23.98;;;17.98;;
21729;SDS011;11027;51.030;13.812;2023-12-07T08:14:28;27.15;;;19.75;;
21729;SDS011;11027;51.030;13.812;2023-12-07T08:16:53;25.50;;;18.48;;
21729;SDS011;11027;51.030;13.812;2023-12-07T08:19:19;24.95;;;18.63;;
21729;SDS011;11027;51.030;13.812;2023-12-07T08:21:44;24.00;;;18.35;;
21729;SDS011;11027;51.030;13.812;2023-12-07T08:24:09;24.33;;;18.35;;
21729;SDS011;11027;51.030;13.812;2023-12-07T08:26:34;23.88;;;18.20;;
21729;SDS011;11027;51.030;13.812;2023-12-07T08:29:00;26.05;;;18.10;;
21729;SDS011;11027;51.030;13.812;2023-12-07T08:31:25;26.80;;;18.05;;
21729;SDS011;11027;51.030;13.812;2023-12-07T08:33:51;25.05;;;18.83;;
21729;SDS011;11027;51.030;13.812;2023-12-07T08:36:16;26.17;;;18.90;;
21729;SDS011;11027;51.030;13.812;2023-12-07T08:38:41;27.63;;;19.80;;
21729;SDS011;11027;51.030;13.812;2023-12-07T08:41:07;28.08;;;19.52;;
21729;SDS011;11027;51.030;13.812;2023-12-07T08:43:32;29.48;;;19.50;;
21729;SDS011;11027;51.030;13.812;2023-12-07T08:45:58;25.33;;;18.90;;
21729;SDS011;11027;51.030;13.812;2023-12-07T08:48:23;25.45;;;18.98;;
21729;SDS011;11027;51.030;13.812;2023-12-07T08:50:48;26.33;;;19.80;;
21729;SDS011;11027;51.030;13.812;2023-12-07T08:53:13;30.13;;;19.90;;
21729;SDS011;11027;51.030;13.812;2023-12-07T08:55:39;25.63;;;18.73;;
21729;SDS011;11027;51.030;13.812;2023-12-07T08:58:04;29.30;;;19.95;;
21729;SDS011;11027;51.030;13.812;2023-12-07T09:00:30;25.70;;;18.73;;
21729;SDS011;11027;51.030;13.812;2023-12-07T09:02:59;29.45;;;20.20;;
21729;SDS011;11027;51.030;13.812;2023-12-07T09:05:25;26.90;;;18.80;;
21729;SDS011;11027;51.030;13.812;2023-12-07T09:07:51;25.77;;;19.42;;
21729;SDS011;11027;51.030;13.812;2023-12-07T09:10:17;27.15;;;19.63;;
21729;SDS011;11027;51.030;13.812;2023-12-07T09:12:43;27.40;;;19.52;;
21729;SDS011;11027;51.030;13.812;2023-12-07T09:15:08;22.33;;;16.95;;
21729;SDS011;11027;51.030;13.812;2023-12-07T09:17:34;24.55;;;17.63;;
21729;SDS011;11027;51.030;13.812;2023-12-07T09:20:00;24.30;;;17.33;;
21729;SDS011;11027;51.030;13.812;2023-12-07T09:22:26;25.38;;;17.55;;
21729;SDS011;11027;51.030;13.812;2023-12-07T09:24:51;25.30;;;18.23;;
21729;SDS011;11027;51.030;13.812;2023-12-07T09:27:16;24.17;;;17.70;;
21729;SDS011;11027;51.030;13.812;2023-12-07T09:29:42;28.20;;;18.75;;
21729;SDS011;11027;51.030;13.812;2023-12-07T09:32:07;24.33;;;18.15;;
21729;SDS011;11027;51.030;13.812;2023-12-07T09:34:32;23.90;;;16.90;;
21729;SDS011;11027;51.030;13.812;2023-12-07T09:37:07;23.40;;;17.20;;
21729;SDS011;11027;51.030;13.812;2023-12-07T09:39:33;25.83;;;18.73;;
21729;SDS011;11027;51.030;13.812;2023-12-07T09:41:59;23.85;;;17.27;;
21729;SDS011;11027;51.030;13.812;2023-12-07T09:44:24;24.25;;;16.98;;
21729;SDS011;11027;51.030;13.812;2023-12-07T09:46:49;24.50;;;17.17;;
21729;SDS011;11027;51.030;13.812;2023-12-07T09:49:15;28.02;;;17.85;;
21729;SDS011;11027;51.030;13.812;2023-12-07T09:51:41;24.48;;;18.55;;
21729;SDS011;11027;51.030;13.812;2023-12-07T09:54:07;23.05;;;17.75;;
21729;SDS011;11027;51.030;13.812;2023-12-07T09:56:33;22.90;;;17.55;;
21729;SDS011;11027;51.030;13.812;2023-12-07T09:58:58;26.15;;;18.60;;
21729;SDS011;11027;51.030;13.812;2023-12-07T10:01:27;25.80;;;18.70;;
21729;SDS011;11027;51.030;13.812;2023-12-07T10:06:44;25.50;;;19.10;;
21729;SDS011;11027;51.030;13.812;2023-12-07T10:09:10;30.17;;;19.33;;
21729;SDS011;11027;51.030;13.812;2023-12-07T10:11:36;27.92;;;19.75;;
21729;SDS011;11027;51.030;13.812;2023-12-07T10:14:02;23.25;;;17.25;;
21729;SDS011;11027;51.030;13.812;2023-12-07T10:16:27;23.33;;;15.85;;
21729;SDS011;11027;51.030;13.812;2023-12-07T10:18:52;21.73;;;16.15;;
21729;SDS011;11027;51.030;13.812;2023-12-07T10:21:30;20.23;;;16.10;;
21729;SDS011;11027;51.030;13.812;2023-12-07T10:23:56;24.50;;;18.40;;
21729;SDS011;11027;51.030;13.812;2023-12-07T10:26:22;29.42;;;19.27;;
21729;SDS011;11027;51.030;13.812;2023-12-07T10:28:48;23.77;;;17.83;;
21729;SDS011;11027;51.030;13.812;2023-12-07T10:31:18;31.55;;;19.80;;
21729;SDS011;11027;51.030;13.812;2023-12-07T10:33:47;28.65;;;19.17;;
21729;SDS011;11027;51.030;13.812;2023-12-07T10:36:15;31.58;;;21.08;;
21729;SDS011;11027;51.030;13.812;2023-12-07T10:38:40;27.05;;;19.85;;
21729;SDS011;11027;51.030;13.812;2023-12-07T10:41:06;25.35;;;18.65;;
21729;SDS011;11027;51.030;13.812;2023-12-07T10:43:37;23.98;;;18.05;;
21729;SDS011;11027;51.030;13.812;2023-12-07T10:46:06;23.83;;;16.85;;
21729;SDS011;11027;51.030;13.812;2023-12-07T10:48:33;21.88;;;15.45;;
21729;SDS011;11027;51.030;13.812;2023-12-07T10:51:00;22.02;;;15.85;;
21729;SDS011;11027;51.030;13.812;2023-12-07T10:53:34;20.73;;;15.90;;
21729;SDS011;11027;51.030;13.812;2023-12-07T10:56:05;18.88;;;14.73;;
21729;SDS011;11027;51.030;13.812;2023-12-07T10:58:42;20.08;;;15.75;;
21729;SDS011;11027;51.030;13.812;2023-12-07T11:01:08;24.25;;;16.05;;
21729;SDS011;11027;51.030;13.812;2023-12-07T11:03:34;20.60;;;14.88;;
21729;SDS011;11027;51.030;13.812;2023-12-07T11:06:00;20.67;;;15.18;;
21729;SDS011;11027;51.030;13.812;2023-12-07T11:11:24;23.13;;;15.88;;
21729;SDS011;11027;51.030;13.812;2023-12-07T11:13:56;22.10;;;15.32;;
21729;SDS011;11027;51.030;13.812;2023-12-07T11:16:28;35.43;;;26.70;;
21729;SDS011;11027;51.030;13.812;2023-12-07T11:22:01;21.23;;;16.38;;
21729;SDS011;11027;51.030;13.812;2023-12-07T11:24:30;25.15;;;18.20;;
21729;SDS011;11027;51.030;13.812;2023-12-07T11:26:56;24.23;;;14.90;;
21729;SDS011;11027;51.030;13.812;2023-12-07T11:29:21;21.45;;;15.70;;
21729;SDS011;11027;51.030;13.812;2023-12-07T11:31:49;23.98;;;16.77;;
21729;SDS011;11027;51.030;13.812;2023-12-07T11:34:33;31.40;;;22.00;;
21729;SDS011;11027;51.030;13.812;2023-12-07T11:37:01;21.10;;;15.57;;
21729;SDS011;11027;51.030;13.812;2023-12-07T11:39:31;21.30;;;15.43;;
21729;SDS011;11027;51.030;13.812;2023-12-07T11:42:06;22.05;;;15.75;;
21729;SDS011;11027;51.030;13.812;2023-12-07T11:44:34;19.45;;;15.45;;
21729;SDS011;11027;51.030;13.812;2023-12-07T11:47:02;26.02;;;18.95;;
21729;SDS011;11027;51.030;13.812;2023-12-07T11:49:28;21.23;;;15.63;;
21729;SDS011;11027;51.030;13.812;2023-12-07T11:51:53;22.98;;;16.55;;
21729;SDS011;11027;51.030;13.812;2023-12-07T11:54:19;21.90;;;16.05;;
21729;SDS011;11027;51.030;13.812;2023-12-07T11:56:44;19.50;;;15.45;;
21729;SDS011;11027;51.030;13.812;2023-12-07T11:59:09;23.45;;;15.52;;
21729;SDS011;11027;51.030;13.812;2023-12-07T12:01:35;20.90;;;16.02;;
21729;SDS011;11027;51.030;13.812;2023-12-07T12:04:00;20.60;;;15.25;;
21729;SDS011;11027;51.030;13.812;2023-12-07T12:06:25;18.85;;;14.75;;
21729;SDS011;11027;51.030;13.812;2023-12-07T12:08:51;18.73;;;14.73;;
21729;SDS011;11027;51.030;13.812;2023-12-07T12:11:17;19.17;;;14.00;;
21729;SDS011;11027;51.030;13.812;2023-12-07T12:13:43;19.70;;;14.95;;
21729;SDS011;11027;51.030;13.812;2023-12-07T12:16:10;21.40;;;15.18;;
21729;SDS011;11027;51.030;13.812;2023-12-07T12:18:36;20.27;;;15.93;;
21729;SDS011;11027;51.030;13.812;2023-12-07T12:21:02;20.95;;;14.82;;
21729;SDS011;11027;51.030;13.812;2023-12-07T12:23:27;22.60;;;15.85;;
21729;SDS011;11027;51.030;13.812;2023-12-07T12:25:53;22.63;;;16.00;;
21729;SDS011;11027;51.030;13.812;2023-12-07T12:28:19;21.75;;;14.73;;
21729;SDS011;11027;51.030;13.812;2023-12-07T12:30:48;21.10;;;15.25;;
21729;SDS011;11027;51.030;13.812;2023-12-07T12:33:15;19.25;;;14.30;;
21729;SDS011;11027;51.030;13.812;2023-12-07T12:35:40;20.33;;;15.63;;
21729;SDS011;11027;51.030;13.812;2023-12-07T12:38:15;19.23;;;14.63;;
21729;SDS011;11027;51.030;13.812;2023-12-07T12:40:40;22.65;;;15.35;;
21729;SDS011;11027;51.030;13.812;2023-12-07T12:43:08;19.20;;;14.57;;
21729;SDS011;11027;51.030;13.812;2023-12-07T12:45:33;19.17;;;15.70;;
21729;SDS011;11027;51.030;13.812;2023-12-07T12:47:59;19.00;;;14.98;;
21729;SDS011;11027;51.030;13.812;2023-12-07T12:50:34;18.67;;;15.27;;
21729;SDS011;11027;51.030;13.812;2023-12-07T12:53:04;20.63;;;15.05;;
21729;SDS011;11027;51.030;13.812;2023-12-07T12:55:31;20.95;;;15.15;;
21729;SDS011;11027;51.030;13.812;2023-12-07T12:58:04;19.13;;;14.85;;
21729;SDS011;11027;51.030;13.812;2023-12-07T13:00:32;20.27;;;15.80;;
21729;SDS011;11027;51.030;13.812;2023-12-07T13:02:58;21.92;;;16.63;;
21729;SDS011;11027;51.030;13.812;2023-12-07T13:05:27;20.52;;;15.63;;
21729;SDS011;11027;51.030;13.812;2023-12-07T13:07:52;20.77;;;15.93;;
21729;SDS011;11027;51.030;13.812;2023-12-07T13:10:18;23.77;;;16.60;;
21729;SDS011;11027;51.030;13.812;2023-12-07T13:12:43;19.90;;;15.63;;
21729;SDS011;11027;51.030;13.812;2023-12-07T13:15:10;21.48;;;16.27;;
21729;SDS011;11027;51.030;13.812;2023-12-07T13:17:35;22.42;;;16.55;;
21729;SDS011;11027;51.030;13.812;2023-12-07T13:20:01;23.83;;;16.65;;
21729;SDS011;11027;51.030;13.812;2023-12-07T13:22:26;20.10;;;15.88;;
21729;SDS011;11027;51.030;13.812;2023-12-07T13:24:51;22.92;;;16.85;;
21729;SDS011;11027;51.030;13.812;2023-12-07T13:27:17;23.38;;;16.58;;
21729;SDS011;11027;51.030;13.812;2023-12-07T13:29:43;24.27;;;16.80;;
21729;SDS011;11027;51.030;13.812;2023-12-07T13:32:08;21.92;;;16.95;;
21729;SDS011;11027;51.030;13.812;2023-12-07T13:34:33;21.98;;;17.20;;
21729;SDS011;11027;51.030;13.812;2023-12-07T13:36:58;19.65;;;15.20;;
21729;SDS011;11027;51.030;13.812;2023-12-07T13:39:24;20.60;;;15.73;;
21729;SDS011;11027;51.030;13.812;2023-12-07T13:41:51;24.17;;;16.08;;
21729;SDS011;11027;51.030;13.812;2023-12-07T13:44:17;23.83;;;17.55;;
21729;SDS011;11027;51.030;13.812;2023-12-07T13:46:43;23.02;;;17.00;;
21729;SDS011;11027;51.030;13.812;2023-12-07T13:49:09;23.92;;;16.80;;
21729;SDS011;11027;51.030;13.812;2023-12-07T13:51:34;22.38;;;16.73;;
21729;SDS011;11027;51.030;13.812;2023-12-07T13:54:00;26.83;;;17.90;;
21729;SDS011;11027;51.030;13.812;2023-12-07T13:56:25;24.42;;;18.35;;
21729;SDS011;11027;51.030;13.812;2023-12-07T13:58:51;23.50;;;17.77;;
21729;SDS011;11027;51.030;13.812;2023-12-07T14:01:17;22.92;;;18.05;;
21729;SDS011;11027;51.030;13.812;2023-12-07T14:03:43;24.70;;;17.90;;
21729;SDS011;11027;51.030;13.812;2023-12-07T14:06:08;24.50;;;17.52;;
21729;SDS011;11027;51.030;13.812;2023-12-07T14:08:33;21.77;;;17.25;;
21729;SDS011;11027;51.030;13.812;2023-12-07T14:10:59;23.48;;;17.52;;